Time;durP1;ratioP1;P1;durP2;ratioP2;P2;SDS_P1;SDS_P2;PMS_P1;PMS_P2;Temp;Humidity;BMP_temperature;BMP_pressure;BME280_temperature;BME280_humidity;BME280_pressure;Samples;Min_cycle;Max_cycle;Signal;HPM_P1;HPM_P2
2022/10/12 00:01:01;;;;;;;2.10;0.87;;;;;;;16.81;100.00;95877.38;5134583;27;20504;-58
2022/10/12 00:03:29;;;;;;;1.07;0.80;;;;;;;16.83;100.00;95877.84;5132975;27;20431;-59
2022/10/12 00:06:02;;;;;;;0.60;0.50;;;;;;;16.90;100.00;95880.94;5134206;27;20433;-59
2022/10/12 00:08:33;;;;;;;0.50;0.30;;;;;;;16.78;100.00;95880.63;5134043;27;20970;-59
2022/10/12 00:11:02;;;;;;;2.60;1.90;;;;;;;16.51;100.00;95878.66;5133823;27;20452;-58
2022/10/12 00:13:31;;;;;;;0.60;0.60;;;;;;;16.53;100.00;95878.38;5134294;27;20809;-59
2022/10/12 00:16:03;;;;;;;0.53;0.53;;;;;;;16.81;100.00;95869.34;5134039;27;20449;-59
2022/10/12 00:18:31;;;;;;;0.57;0.50;;;;;;;16.78;100.00;95875.28;5134271;27;20421;-59
2022/10/12 00:21:04;;;;;;;0.77;0.77;;;;;;;16.72;100.00;95865.72;5132968;27;20430;-59
2022/10/12 00:23:35;;;;;;;1.17;1.07;;;;;;;16.76;100.00;95869.41;5133720;27;20426;-59
2022/10/12 00:26:06;;;;;;;2.23;1.00;;;;;;;16.90;100.00;95870.22;5133657;27;20434;-59
2022/10/12 00:28:35;;;;;;;0.60;0.60;;;;;;;16.79;100.00;95866.16;5133652;27;20433;-59
2022/10/12 00:31:07;;;;;;;2.20;0.90;;;;;;;16.58;100.00;95869.47;5133797;27;20466;-59
2022/10/12 00:33:37;;;;;;;0.50;0.40;;;;;;;16.37;100.00;95864.41;5133643;27;20436;-59
2022/10/12 00:36:14;;;;;;;1.10;1.00;;;;;;;16.04;100.00;95860.09;5133458;27;20425;-59
2022/10/12 00:38:45;;;;;;;0.60;0.40;;;;;;;16.33;100.00;95855.38;5132862;27;20430;-59
2022/10/12 00:41:14;;;;;;;0.50;0.30;;;;;;;16.54;100.00;95863.13;5133449;27;20441;-59
2022/10/12 00:43:44;;;;;;;0.50;0.40;;;;;;;16.69;100.00;95869.00;5133265;27;20470;-59
2022/10/12 00:46:17;;;;;;;0.43;0.37;;;;;;;16.81;100.00;95863.19;5133762;27;20429;-59
2022/10/12 00:48:48;;;;;;;0.50;0.50;;;;;;;15.74;100.00;95695.63;5133575;27;20430;-58
2022/10/12 00:51:19;;;;;;;0.50;0.50;;;;;;;16.94;100.00;95855.19;5133096;27;20794;-58
2022/10/12 00:53:53;;;;;;;0.63;0.57;;;;;;;16.77;100.00;95835.41;5133371;27;20440;-59
2022/10/12 00:56:25;;;;;;;0.40;0.30;;;;;;;16.93;100.00;95861.63;5133467;27;20434;-58
2022/10/12 00:58:54;;;;;;;0.40;0.30;;;;;;;16.79;100.00;95860.81;5133571;27;20441;-58
2022/10/12 01:01:23;;;;;;;1.40;1.20;;;;;;;16.81;100.00;95861.31;5133317;27;20456;-58
2022/10/12 01:03:52;;;;;;;0.50;0.40;;;;;;;16.46;100.00;95864.56;5133032;27;20476;-58
2022/10/12 01:06:20;;;;;;;0.70;0.70;;;;;;;16.05;100.00;95867.06;5133462;27;20449;-58
2022/10/12 01:08:50;;;;;;;0.40;0.40;;;;;;;16.05;100.00;95823.47;5133065;27;20429;-58
2022/10/12 01:11:19;;;;;;;2.00;0.87;;;;;;;16.70;100.00;95862.56;5132913;27;20430;-58
2022/10/12 01:13:47;;;;;;;1.00;0.70;;;;;;;16.62;100.00;95865.13;5132305;27;20438;-58
2022/10/12 01:16:20;;;;;;;0.60;0.57;;;;;;;16.64;100.00;95863.75;5132898;27;20417;-58
2022/10/12 01:18:56;;;;;;;1.13;1.03;;;;;;;16.76;100.00;95856.03;5133157;27;20424;-58
2022/10/12 01:21:25;;;;;;;0.40;0.30;;;;;;;16.49;100.00;95861.28;5132892;27;20440;-58
2022/10/12 01:24:24;;;;;;;0.50;0.40;;;;;;;16.70;100.00;95862.56;5132492;27;20501;-58
2022/10/12 01:27:23;;;;;;;0.60;0.40;;;;;;;16.91;100.00;95853.09;5132867;27;20925;-58
2022/10/12 01:30:15;;;;;;;0.50;0.30;;;;;;;16.82;100.00;95859.41;5136273;27;20430;-58
2022/10/12 01:33:10;;;;;;;0.40;0.40;;;;;;;16.65;100.00;95864.53;5139153;27;20429;-58
2022/10/12 01:35:46;;;;;;;1.80;0.50;;;;;;;16.37;100.00;95860.94;5136764;27;20805;-58
2022/10/12 01:38:27;;;;;;;0.60;0.50;;;;;;;15.71;100.00;95856.56;5139824;27;20432;-58
2022/10/12 01:41:02;;;;;;;1.13;0.40;;;;;;;15.72;100.00;95862.72;5139867;27;20440;-57
2022/10/12 01:43:35;;;;;;;1.20;1.20;;;;;;;15.80;100.00;95862.06;5139229;27;20484;-57
2022/10/12 01:46:36;;;;;;;1.20;0.30;;;;;;;15.85;100.00;95829.91;5139842;27;20526;-57
2022/10/12 01:49:07;;;;;;;1.03;0.93;;;;;;;15.75;100.00;95766.72;5134823;27;20440;-58
2022/10/12 01:51:47;;;;;;;0.40;0.40;;;;;;;16.52;100.00;95858.03;5139711;27;20480;-58
2022/10/12 01:54:26;;;;;;;0.40;0.30;;;;;;;16.51;100.00;95859.13;5139420;27;20445;-58
2022/10/12 01:57:04;;;;;;;0.50;0.40;;;;;;;16.66;100.00;95860.75;5139396;27;20434;-58
2022/10/12 01:59:43;;;;;;;0.50;0.30;;;;;;;16.69;100.00;95860.19;5139699;27;20433;-57
2022/10/12 02:02:18;;;;;;;0.40;0.30;;;;;;;16.62;100.00;95859.78;5139252;27;20436;-57
2022/10/12 02:04:52;;;;;;;0.40;0.40;;;;;;;16.76;100.00;95856.03;5139724;27;20433;-57
2022/10/12 02:07:26;;;;;;;0.40;0.20;;;;;;;16.73;100.00;95861.16;5139607;27;20426;-57
2022/10/12 02:09:58;;;;;;;0.50;0.40;;;;;;;16.55;100.00;95862.00;5139598;27;20437;-57
2022/10/12 02:12:29;;;;;;;0.40;0.27;;;;;;;16.74;100.00;95862.78;5139170;27;20438;-57
2022/10/12 02:15:01;;;;;;;0.40;0.30;;;;;;;16.64;100.00;95852.25;5139236;27;20446;-58
2022/10/12 02:17:30;;;;;;;0.40;0.33;;;;;;;16.78;100.00;95866.44;5139567;27;20460;-57
2022/10/12 02:20:01;;;;;;;0.40;0.30;;;;;;;16.98;100.00;95863.41;5139381;27;20432;-57
2022/10/12 02:22:38;;;;;;;0.40;0.30;;;;;;;17.02;100.00;95861.72;5139091;27;20440;-57
2022/10/12 02:25:09;;;;;;;1.03;1.03;;;;;;;16.75;100.00;95870.50;5138903;27;20480;-57
2022/10/12 02:27:42;;;;;;;0.40;0.30;;;;;;;16.73;100.00;95875.34;5139528;27;20431;-57
2022/10/12 02:30:12;;;;;;;0.50;0.30;;;;;;;16.54;100.00;95865.78;5139267;27;20425;-57
2022/10/12 02:32:48;;;;;;;0.40;0.30;;;;;;;16.47;100.00;95879.50;5139338;27;20493;-57
2022/10/12 02:35:24;;;;;;;0.77;0.60;;;;;;;16.43;100.00;95875.84;5138811;27;20447;-57
2022/10/12 02:38:00;;;;;;;0.50;0.30;;;;;;;16.47;100.00;95868.78;5139060;27;20437;-57
2022/10/12 02:40:35;;;;;;;0.50;0.30;;;;;;;16.03;100.00;95874.56;5138882;27;20464;-57
2022/10/12 02:43:08;;;;;;;0.70;0.50;;;;;;;16.06;100.00;95948.88;5136410;27;20469;-57
2022/10/12 02:45:42;;;;;;;0.40;0.30;;;;;;;16.33;100.00;95870.66;5135847;27;20429;-57
2022/10/12 02:48:15;;;;;;;0.80;0.80;;;;;;;16.60;100.00;95862.72;5135426;27;20818;-58
2022/10/12 02:50:47;;;;;;;0.40;0.30;;;;;;;16.68;100.00;95866.63;5135626;27;20433;-58
2022/10/12 02:53:16;;;;;;;0.90;0.60;;;;;;;16.66;100.00;95855.41;5136103;27;20426;-58
2022/10/12 02:55:49;;;;;;;0.63;0.43;;;;;;;16.73;100.00;95861.16;5135637;27;20752;-58
2022/10/12 02:58:18;;;;;;;0.50;0.30;;;;;;;16.71;100.00;95866.84;5135807;27;20426;-58
2022/10/12 03:00:47;;;;;;;0.40;0.40;;;;;;;16.79;100.00;95860.00;5135870;27;20432;-58
2022/10/12 03:03:15;;;;;;;0.50;0.50;;;;;;;16.91;100.00;95863.00;5134628;27;20567;-58
2022/10/12 03:05:45;;;;;;;0.40;0.40;;;;;;;16.83;100.00;95856.44;5135511;27;20429;-58
2022/10/12 03:08:14;;;;;;;0.50;0.43;;;;;;;16.19;100.00;95827.00;5135364;27;20426;-58
2022/10/12 03:10:42;;;;;;;0.40;0.30;;;;;;;14.68;100.00;95671.50;5134954;27;20430;-58
2022/10/12 03:13:10;;;;;;;0.60;0.60;;;;;;;15.96;100.00;95850.09;5135188;27;20437;-58
2022/10/12 03:15:39;;;;;;;0.50;0.37;;;;;;;16.30;100.00;95857.84;5135273;27;20434;-58
2022/10/12 03:18:07;;;;;;;0.40;0.30;;;;;;;16.22;100.00;95855.81;5135638;27;20912;-59
2022/10/12 03:20:35;;;;;;;0.80;0.40;;;;;;;16.24;100.00;95853.69;5135535;27;20429;-59
2022/10/12 03:23:05;;;;;;;1.00;0.50;;;;;;;15.92;100.00;95856.28;5135394;27;20473;-58
2022/10/12 03:25:33;;;;;;;0.50;0.30;;;;;;;16.12;100.00;95855.97;5134862;27;20496;-59
2022/10/12 03:28:02;;;;;;;0.77;0.77;;;;;;;16.28;100.00;95846.66;5135185;27;20434;-58
2022/10/12 03:30:30;;;;;;;1.10;1.10;;;;;;;16.17;100.00;95827.28;5135236;27;20429;-58
2022/10/12 03:32:58;;;;;;;0.87;0.63;;;;;;;16.45;100.00;95861.06;5135108;27;20444;-58
2022/10/12 03:35:26;;;;;;;0.60;0.40;;;;;;;16.61;100.00;95848.28;5134885;27;20932;-57
2022/10/12 03:37:55;;;;;;;2.10;0.40;;;;;;;16.66;100.00;95860.75;5137047;27;20425;-58
2022/10/12 03:40:24;;;;;;;0.40;0.30;;;;;;;16.49;100.00;95859.38;5134983;27;20426;-58
2022/10/12 03:42:53;;;;;;;2.30;0.40;;;;;;;15.90;100.00;95853.91;5134981;27;20429;-58
2022/10/12 03:45:21;;;;;;;0.50;0.40;;;;;;;15.65;100.00;95865.75;5134930;27;20822;-58
2022/10/12 03:47:50;;;;;;;0.73;0.70;;;;;;;15.47;100.00;95850.47;5134543;27;20422;-57
2022/10/12 03:50:18;;;;;;;0.60;0.40;;;;;;;15.57;100.00;95858.38;5134907;27;20438;-57
2022/10/12 03:52:46;;;;;;;0.73;0.73;;;;;;;15.74;100.00;95858.66;5134456;27;20438;-57
2022/10/12 03:55:15;;;;;;;0.50;0.30;;;;;;;15.67;100.00;95866.25;5133203;27;20437;-57
2022/10/12 03:57:45;;;;;;;0.80;0.60;;;;;;;15.92;100.00;95857.09;5134856;27;20429;-57
2022/10/12 04:00:14;;;;;;;0.50;0.47;;;;;;;16.12;100.00;95866.69;5134578;27;20438;-57
2022/10/12 04:02:42;;;;;;;0.50;0.40;;;;;;;16.06;100.00;95865.97;5134648;27;20509;-58
2022/10/12 04:05:11;;;;;;;0.40;0.30;;;;;;;15.37;100.00;95743.75;5133961;27;20494;-57
2022/10/12 04:07:39;;;;;;;0.50;0.40;;;;;;;16.32;100.00;95861.00;5134336;27;20422;-57
2022/10/12 04:10:08;;;;;;;0.50;0.40;;;;;;;16.31;100.00;95860.25;5134145;27;20429;-57
2022/10/12 04:12:37;;;;;;;1.00;0.90;;;;;;;16.16;100.00;95852.47;5134051;27;20434;-58
2022/10/12 04:15:08;;;;;;;0.50;0.50;;;;;;;15.99;100.00;95859.41;5133659;27;20964;-57
2022/10/12 04:17:36;;;;;;;0.50;0.43;;;;;;;16.07;100.00;95848.84;5133914;27;20917;-57
2022/10/12 04:20:06;;;;;;;0.67;0.60;;;;;;;16.22;100.00;95859.28;5134743;27;20428;-58
2022/10/12 04:22:35;;;;;;;1.13;0.80;;;;;;;16.13;100.00;95862.94;5133964;27;20433;-58
2022/10/12 04:25:03;;;;;;;1.27;1.17;;;;;;;16.10;100.00;95856.28;5133455;27;20489;-58
2022/10/12 04:27:31;;;;;;;9.37;0.90;;;;;;;15.70;100.00;95864.88;5133448;27;20425;-58
2022/10/12 04:30:00;;;;;;;1.10;1.00;;;;;;;15.77;100.00;95857.28;5133963;27;20460;-58
2022/10/12 04:32:30;;;;;;;0.97;0.87;;;;;;;15.96;100.00;95865.31;5133881;27;20813;-58
2022/10/12 04:34:59;;;;;;;0.50;0.50;;;;;;;16.24;100.00;95854.44;5133577;27;20438;-58
2022/10/12 04:37:27;;;;;;;2.00;0.60;;;;;;;16.27;100.00;95859.22;5133656;27;20436;-58
2022/10/12 04:39:56;;;;;;;0.50;0.30;;;;;;;16.03;100.00;95837.16;5133298;27;20942;-58
2022/10/12 04:42:24;;;;;;;0.73;0.73;;;;;;;16.04;100.00;95872.69;5133641;27;20912;-59
2022/10/12 04:44:52;;;;;;;0.57;0.50;;;;;;;15.60;100.00;95881.03;5133271;27;20477;-56
2022/10/12 04:47:21;;;;;;;1.63;0.80;;;;;;;15.97;100.00;95873.03;5133330;27;20780;-57
2022/10/12 04:49:51;;;;;;;1.57;1.53;;;;;;;15.76;100.00;95845.03;5132392;27;20503;-57
2022/10/12 04:52:19;;;;;;;1.63;0.87;;;;;;;15.83;100.00;95873.00;5133252;27;20814;-57
2022/10/12 04:54:47;;;;;;;1.80;1.10;;;;;;;15.82;100.00;95883.94;5133131;27;20432;-57
2022/10/12 04:57:16;;;;;;;0.97;0.97;;;;;;;15.62;100.00;95890.38;5133184;27;20420;-57
2022/10/12 04:59:44;;;;;;;0.93;0.83;;;;;;;15.93;100.00;95885.41;5133017;27;20428;-57
2022/10/12 05:02:12;;;;;;;0.80;0.60;;;;;;;16.00;100.00;95896.53;5133551;27;20418;-57
2022/10/12 05:04:40;;;;;;;0.87;0.80;;;;;;;16.02;100.00;95886.34;5132901;27;20462;-57
2022/10/12 05:07:10;;;;;;;2.10;1.53;;;;;;;16.23;100.00;95894.88;5132553;27;20932;-57
2022/10/12 05:09:38;;;;;;;0.77;0.50;;;;;;;16.10;100.00;95899.06;5133110;27;20949;-57
2022/10/12 05:12:07;;;;;;;6.03;0.50;;;;;;;16.35;100.00;95896.03;5133492;27;20441;-57
2022/10/12 05:14:35;;;;;;;2.10;0.67;;;;;;;16.50;100.00;95890.44;5133202;27;20434;-57
2022/10/12 05:17:04;;;;;;;1.20;0.80;;;;;;;16.60;100.00;95889.50;5133321;27;20821;-57
2022/10/12 05:19:32;;;;;;;2.20;0.90;;;;;;;16.52;100.00;95903.53;5133189;27;20433;-57
2022/10/12 05:22:00;;;;;;;0.97;0.73;;;;;;;16.30;100.00;95901.44;5132959;27;20762;-58
2022/10/12 05:24:30;;;;;;;1.23;0.43;;;;;;;16.31;100.00;95903.03;5132355;27;20500;-57
2022/10/12 05:26:58;;;;;;;0.63;0.63;;;;;;;16.43;100.00;95907.94;5132787;27;20428;-57
2022/10/12 05:29:26;;;;;;;0.80;0.70;;;;;;;16.35;100.00;95911.25;5132949;27;20425;-58
2022/10/12 05:31:55;;;;;;;0.93;0.57;;;;;;;16.43;100.00;95911.41;5132992;27;20453;-57
2022/10/12 05:34:23;;;;;;;1.10;1.00;;;;;;;16.31;100.00;95913.75;5132920;27;20422;-57
2022/10/12 05:36:51;;;;;;;2.40;0.50;;;;;;;16.19;100.00;95909.91;5133022;27;20441;-58
2022/10/12 05:39:20;;;;;;;0.80;0.80;;;;;;;16.32;100.00;95920.66;5132715;27;20417;-58
2022/10/12 05:41:50;;;;;;;1.13;0.60;;;;;;;16.62;100.00;95919.44;5132370;27;20431;-58
2022/10/12 05:44:18;;;;;;;0.83;0.43;;;;;;;16.48;100.00;95919.38;5132528;27;20734;-59
2022/10/12 05:46:46;;;;;;;0.50;0.30;;;;;;;16.29;100.00;95921.25;5137279;27;20507;-58
2022/10/12 05:49:15;;;;;;;8.87;1.57;;;;;;;16.33;100.00;95924.94;5132997;27;20434;-58
2022/10/12 05:51:43;;;;;;;0.50;0.40;;;;;;;16.45;100.00;95932.50;5132467;27;20429;-58
2022/10/12 05:54:11;;;;;;;0.93;0.57;;;;;;;16.43;100.00;95932.03;5132813;27;20484;-58
2022/10/12 05:56:40;;;;;;;0.60;0.50;;;;;;;16.54;100.00;95936.16;5132364;27;20434;-58
2022/10/12 05:59:10;;;;;;;0.53;0.47;;;;;;;16.68;100.00;95947.72;5132603;27;20433;-59
2022/10/12 06:01:39;;;;;;;0.40;0.30;;;;;;;16.85;100.00;95936.47;5131671;27;20437;-58
2022/10/12 06:04:07;;;;;;;0.50;0.30;;;;;;;16.82;100.00;95932.50;5132717;27;20422;-59
2022/10/12 06:06:35;;;;;;;0.80;0.50;;;;;;;16.97;100.00;95939.50;5132480;27;20862;-58
2022/10/12 06:09:04;;;;;;;1.20;0.70;;;;;;;16.27;100.00;95853.88;5131185;27;20436;-59
2022/10/12 06:11:33;;;;;;;0.40;0.30;;;;;;;16.90;100.00;95941.75;5132287;27;20430;-58
2022/10/12 06:14:03;;;;;;;1.20;1.10;;;;;;;16.62;100.00;95950.78;5132495;27;20901;-58
2022/10/12 06:16:33;;;;;;;0.97;0.97;;;;;;;16.37;100.00;95952.69;5132452;27;20449;-58
2022/10/12 06:19:02;;;;;;;0.60;0.50;;;;;;;16.22;100.00;95952.91;5133785;27;20441;-59
2022/10/12 06:21:30;;;;;;;0.57;0.57;;;;;;;16.65;100.00;95953.66;5135924;27;20433;-58
2022/10/12 06:24:01;;;;;;;0.40;0.40;;;;;;;16.75;100.00;95955.34;5135407;27;20505;-59
2022/10/12 06:26:30;;;;;;;0.93;0.73;;;;;;;16.64;100.00;95961.97;5135797;27;20485;-58
2022/10/12 06:28:59;;;;;;;2.90;1.13;;;;;;;16.72;100.00;95959.41;5136331;27;20433;-59
2022/10/12 06:31:28;;;;;;;0.40;0.40;;;;;;;16.38;100.00;95876.72;5135742;27;20472;-59
2022/10/12 06:33:57;;;;;;;0.67;0.43;;;;;;;16.95;100.00;95955.81;5135919;27;20436;-59
2022/10/12 06:36:26;;;;;;;1.20;0.57;;;;;;;17.47;100.00;95965.38;5135991;27;20429;-59
2022/10/12 06:38:54;;;;;;;1.47;1.43;;;;;;;17.32;100.00;95965.66;5134903;27;20437;-59
2022/10/12 06:41:22;;;;;;;0.67;0.67;;;;;;;16.94;100.00;95966.84;5136280;27;20441;-59
2022/10/12 06:43:51;;;;;;;1.10;1.10;;;;;;;16.89;100.00;95974.97;5135690;27;20429;-59
2022/10/12 06:46:19;;;;;;;1.70;1.60;;;;;;;16.82;100.00;95972.66;5135720;27;20482;-59
2022/10/12 06:48:47;;;;;;;1.37;1.20;;;;;;;16.66;100.00;95981.22;5135730;27;20940;-59
2022/10/12 06:51:17;;;;;;;8.23;3.20;;;;;;;16.40;100.00;95933.41;5135946;27;20990;-59
2022/10/12 06:53:45;;;;;;;6.40;1.40;;;;;;;16.84;100.00;95975.84;5135933;27;20423;-59
2022/10/12 06:56:14;;;;;;;0.70;0.57;;;;;;;16.65;100.00;95929.56;5135786;27;20426;-60
2022/10/12 06:58:42;;;;;;;2.30;2.20;;;;;;;16.88;100.00;95976.03;5135089;27;20914;-59
2022/10/12 07:01:11;;;;;;;1.10;1.10;;;;;;;17.23;100.00;95978.13;5135907;27;20422;-59
2022/10/12 07:03:39;;;;;;;0.40;0.30;;;;;;;17.34;100.00;95978.75;5135793;27;20518;-59
2022/10/12 07:06:09;;;;;;;2.43;2.33;;;;;;;17.29;100.00;95985.00;5135332;27;20469;-59
2022/10/12 07:08:39;;;;;;;0.63;0.63;;;;;;;17.67;100.00;95989.13;5135361;27;20422;-59
2022/10/12 07:11:10;;;;;;;1.20;1.10;;;;;;;17.55;100.00;95986.16;5135370;27;20848;-59
2022/10/12 07:13:38;;;;;;;1.73;1.63;;;;;;;16.94;100.00;95989.06;5135682;27;20415;-58
2022/10/12 07:16:07;;;;;;;2.20;2.10;;;;;;;17.24;100.00;95982.41;5134997;27;20760;-59
2022/10/12 07:18:36;;;;;;;0.90;0.90;;;;;;;17.65;100.00;95991.31;5135214;27;20426;-60
2022/10/12 07:21:04;;;;;;;6.53;2.03;;;;;;;17.57;100.00;95986.66;5134982;27;20430;-60
2022/10/12 07:23:33;;;;;;;1.27;1.27;;;;;;;17.42;100.00;95988.78;5134397;27;20897;-59
2022/10/12 07:26:03;;;;;;;1.27;1.27;;;;;;;17.55;100.00;95991.53;5134786;27;20476;-59
2022/10/12 07:28:33;;;;;;;4.53;1.33;;;;;;;17.71;100.00;95986.63;5134515;27;20431;-60
2022/10/12 07:31:02;;;;;;;0.87;0.87;;;;;;;17.54;100.00;95984.56;5134677;27;20422;-59
2022/10/12 07:33:32;;;;;;;0.80;0.60;;;;;;;17.14;100.00;95982.56;5134780;27;20441;-59
2022/10/12 07:36:01;;;;;;;2.40;2.30;;;;;;;17.09;100.00;95988.81;5134831;27;20440;-60
2022/10/12 07:38:43;;;;;;;0.77;0.77;;;;;;;17.14;100.00;95988.72;5135043;27;20424;-59
2022/10/12 07:41:14;;;;;;;1.13;1.13;;;;;;;17.39;100.00;95970.59;5135019;27;20461;-59
2022/10/12 07:43:43;;;;;;;1.43;1.33;;;;;;;17.37;100.00;95986.19;5134694;27;20424;-60
2022/10/12 07:46:11;;;;;;;2.20;2.00;;;;;;;17.53;100.00;95987.53;5134365;27;20488;-59
2022/10/12 07:48:40;;;;;;;3.73;1.53;;;;;;;17.78;100.00;95981.69;5134803;27;20438;-59
2022/10/12 07:51:16;;;;;;;15.00;3.03;;;;;;;17.64;100.00;95986.25;5134800;27;20448;-59
2022/10/12 07:53:44;;;;;;;2.33;2.23;;;;;;;17.62;100.00;95981.19;5134276;27;20431;-59
2022/10/12 07:56:17;;;;;;;1.80;1.70;;;;;;;18.10;100.00;95983.47;5140220;27;20418;-59
2022/10/12 07:58:49;;;;;;;2.90;1.63;;;;;;;18.14;100.00;95987.16;5134240;27;20934;-58
2022/10/12 08:01:18;;;;;;;3.77;2.40;;;;;;;18.02;100.00;95987.63;5134402;27;20441;-58
2022/10/12 08:03:47;;;;;;;1.93;1.83;;;;;;;18.52;100.00;95988.47;5134068;27;20443;-58
2022/10/12 08:06:17;;;;;;;7.97;2.00;;;;;;;18.10;100.00;95981.56;5133849;27;20988;-58
2022/10/12 08:08:46;;;;;;;9.00;4.20;;;;;;;18.18;100.00;95993.50;5134137;27;20438;-58
2022/10/12 08:11:17;;;;;;;3.57;1.53;;;;;;;17.88;100.00;95919.03;5134131;27;20431;-58
2022/10/12 08:13:46;;;;;;;7.50;2.27;;;;;;;18.39;100.00;95990.06;5134404;27;20431;-58
2022/10/12 08:16:17;;;;;;;3.03;2.80;;;;;;;18.57;100.00;95991.03;5134341;27;20570;-58
2022/10/12 08:18:46;;;;;;;5.50;1.90;;;;;;;19.37;100.00;95982.97;5134265;27;20427;-59
2022/10/12 08:21:16;;;;;;;0.90;0.90;;;;;;;19.52;100.00;95984.44;5134171;27;20430;-59
2022/10/12 08:23:44;;;;;;;1.53;1.43;;;;;;;19.59;100.00;95987.47;5133706;27;20561;-59
2022/10/12 08:26:13;;;;;;;23.83;1.90;;;;;;;19.73;100.00;95979.31;5133539;27;20474;-59
2022/10/12 08:28:43;;;;;;;2.27;2.17;;;;;;;19.68;100.00;95980.25;5134163;27;20411;-59
2022/10/12 08:31:13;;;;;;;4.80;2.87;;;;;;;19.58;99.43;95972.47;5133841;27;20433;-59
2022/10/12 08:33:42;;;;;;;5.17;4.67;;;;;;;19.06;100.00;95984.78;5133863;27;20430;-59
2022/10/12 08:36:12;;;;;;;4.30;3.83;;;;;;;19.23;100.00;95982.19;5133540;27;20423;-59
2022/10/12 08:38:42;;;;;;;7.40;5.03;;;;;;;19.24;100.00;95983.00;5133575;27;20423;-59
2022/10/12 08:41:38;;;;;;;3.13;1.63;;;;;;;19.34;100.00;95988.13;5132855;27;20434;-58
2022/10/12 08:44:32;;;;;;;1.80;1.70;;;;;;;19.85;98.88;95966.88;5127696;27;20436;-59
2022/10/12 08:47:09;;;;;;;2.03;1.00;;;;;;;20.17;97.23;95977.22;5133406;27;20489;-59
2022/10/12 08:49:39;;;;;;;8.53;1.43;;;;;;;19.85;100.00;95976.84;5133061;27;20422;-59
2022/10/12 08:52:20;;;;;;;2.03;1.83;;;;;;;19.75;96.78;95967.16;5133418;27;20419;-60
2022/10/12 08:54:49;;;;;;;4.17;1.60;;;;;;;20.14;96.90;95975.16;5133412;27;20429;-60
2022/10/12 08:57:18;;;;;;;2.63;1.53;;;;;;;20.46;95.37;95965.91;5133264;27;20420;-60
2022/10/12 08:59:48;;;;;;;1.37;1.37;;;;;;;20.42;96.43;95966.84;5133122;27;20423;-60
2022/10/12 09:02:35;;;;;;;1.63;1.53;;;;;;;20.19;93.11;95966.94;5133546;27;20415;-59
2022/10/12 09:05:08;;;;;;;1.47;0.93;;;;;;;20.64;90.52;95969.41;5133101;27;20430;-59
2022/10/12 09:07:40;;;;;;;1.73;1.63;;;;;;;19.78;93.23;95976.50;5133048;27;20465;-60
2022/10/12 09:10:25;;;;;;;3.87;0.83;;;;;;;20.19;93.83;95933.84;5133090;27;20435;-59
2022/10/12 09:13:02;;;;;;;0.80;0.60;;;;;;;19.94;92.58;95967.69;5133286;27;20814;-60
2022/10/12 09:15:35;;;;;;;1.77;1.67;;;;;;;19.90;92.39;95964.03;5133276;27;20470;-60
2022/10/12 09:18:15;;;;;;;1.53;1.37;;;;;;;19.74;93.45;95964.75;5132925;27;20896;-60
2022/10/12 09:20:47;;;;;;;3.23;1.43;;;;;;;20.31;89.39;95958.31;5133152;27;20452;-60
2022/10/12 09:23:25;;;;;;;0.50;0.50;;;;;;;20.52;88.32;95956.56;5133149;27;20423;-60
2022/10/12 09:25:58;;;;;;;2.70;1.43;;;;;;;20.67;89.64;95948.00;5091892;28;20438;-60
2022/10/12 09:28:34;;;;;;;1.80;1.10;;;;;;;20.58;88.88;95949.13;5091766;28;20432;-59
2022/10/12 09:31:17;;;;;;;0.60;0.50;;;;;;;21.13;86.01;95958.13;5091695;28;20780;-59
2022/10/12 09:33:51;;;;;;;1.13;1.07;;;;;;;21.05;83.04;95950.06;5091685;28;20429;-59
2022/10/12 09:36:22;;;;;;;0.60;0.60;;;;;;;21.31;83.56;95948.09;5091781;28;20912;-59
2022/10/12 09:38:51;;;;;;;0.97;0.97;;;;;;;21.40;80.73;95941.56;5091932;28;20783;-58
2022/10/12 09:41:22;;;;;;;0.50;0.50;;;;;;;20.87;83.60;95923.09;5091579;28;20437;-51
2022/10/12 09:43:52;;;;;;;7.20;1.97;;;;;;;21.17;80.73;95940.22;5091527;28;20431;-51
2022/10/12 09:46:29;;;;;;;2.10;2.00;;;;;;;21.12;79.80;95943.09;5090830;28;20650;-51
2022/10/12 09:48:59;;;;;;;1.27;0.73;;;;;;;21.85;79.96;95941.06;5091180;28;20436;-51
2022/10/12 09:51:29;;;;;;;6.63;1.53;;;;;;;21.68;78.58;95938.47;5090705;28;20444;-51
2022/10/12 09:54:02;;;;;;;1.50;1.40;;;;;;;21.15;79.13;95944.34;5095550;28;20439;-51
2022/10/12 09:56:40;;;;;;;1.40;1.30;;;;;;;21.53;77.91;95897.41;5095522;28;20447;-51
2022/10/12 09:59:26;;;;;;;2.80;1.00;;;;;;;21.52;76.61;95930.13;5095466;28;20439;-51
2022/10/12 10:02:04;;;;;;;6.63;2.43;;;;;;;21.17;77.32;95932.13;5095675;28;20446;-51
2022/10/12 10:04:33;;;;;;;2.00;1.90;;;;;;;21.10;77.54;95929.13;5095677;28;20423;-52
2022/10/12 10:07:21;;;;;;;3.00;1.10;;;;;;;21.19;76.96;95918.31;5095359;28;20468;-51
2022/10/12 10:10:08;;;;;;;2.00;1.90;;;;;;;20.41;79.28;95914.13;5095370;28;20927;-51
2022/10/12 10:12:41;;;;;;;1.60;1.50;;;;;;;20.42;79.00;95921.88;5095323;28;20444;-51
2022/10/12 10:15:20;;;;;;;1.20;1.17;;;;;;;20.71;77.42;95908.56;5094344;28;20825;-51
2022/10/12 10:17:52;;;;;;;2.40;1.43;;;;;;;21.08;75.82;95914.38;5095146;28;20432;-51
2022/10/12 10:20:27;;;;;;;1.20;1.13;;;;;;;21.64;73.77;95915.94;5095018;28;20944;-51
2022/10/12 10:22:56;;;;;;;1.50;0.80;;;;;;;22.39;70.89;95917.75;5095127;28;20451;-51
2022/10/12 10:25:25;;;;;;;1.00;0.90;;;;;;;22.55;71.43;95906.00;5131129;27;20485;-52
2022/10/12 10:28:20;;;;;;;0.60;0.60;;;;;;;21.82;71.20;95912.03;5136131;27;20474;-52
2022/10/12 10:30:57;;;;;;;1.50;0.90;;;;;;;22.21;71.97;95895.47;5135321;27;20427;-52
2022/10/12 10:33:27;;;;;;;0.67;0.57;;;;;;;21.88;71.75;95906.13;5135973;27;20910;-52
2022/10/12 10:36:00;;;;;;;0.67;0.50;;;;;;;22.30;71.00;95909.69;5136101;27;20427;-52
2022/10/12 10:38:30;;;;;;;0.50;0.50;;;;;;;22.94;67.92;95901.25;5135920;27;20433;-53
2022/10/12 10:41:01;;;;;;;3.07;1.47;;;;;;;22.15;68.58;95904.88;5136167;27;20426;-52
2022/10/12 10:43:31;;;;;;;0.67;0.50;;;;;;;22.25;68.22;95896.41;5135229;27;20431;-53
2022/10/12 10:46:02;;;;;;;1.17;0.57;;;;;;;22.85;66.91;95893.19;5135098;27;20431;-52
2022/10/12 10:48:49;;;;;;;0.60;0.50;;;;;;;22.88;67.65;95891.75;5135728;27;20981;-53
2022/10/12 10:51:18;;;;;;;0.90;0.87;;;;;;;22.50;65.28;95890.00;5135515;27;20437;-52
2022/10/12 10:53:48;;;;;;;0.70;0.70;;;;;;;22.52;65.94;95886.94;5136004;27;20453;-52
2022/10/12 10:56:20;;;;;;;1.33;1.33;;;;;;;21.73;66.84;95889.72;5135529;27;20423;-52
2022/10/12 10:58:52;;;;;;;0.50;0.50;;;;;;;21.71;68.57;95873.84;5135789;27;20841;-52
2022/10/12 11:01:26;;;;;;;0.90;0.90;;;;;;;21.53;67.57;95888.53;5135572;27;20430;-51
2022/10/12 11:04:01;;;;;;;1.27;1.20;;;;;;;21.14;67.51;95878.84;5134577;27;20427;-51
2022/10/12 11:06:38;;;;;;;0.50;0.47;;;;;;;21.67;67.37;95882.91;5134598;27;20972;-51
2022/10/12 11:09:11;;;;;;;0.80;0.77;;;;;;;21.98;65.84;95876.09;5134989;27;20472;-51
2022/10/12 11:11:43;;;;;;;0.70;0.40;;;;;;;21.95;67.19;95862.47;5134363;27;20431;-51
2022/10/12 11:14:16;;;;;;;1.00;0.83;;;;;;;21.52;67.65;95870.78;5135287;27;20430;-51
2022/10/12 11:16:49;;;;;;;0.87;0.83;;;;;;;21.23;67.51;95873.41;5135546;27;20819;-51
2022/10/12 11:19:26;;;;;;;0.90;0.90;;;;;;;21.37;68.08;95801.19;5135513;27;20427;-51
2022/10/12 11:21:57;;;;;;;1.23;1.23;;;;;;;21.50;67.70;95865.69;5135146;27;20425;-51
2022/10/12 11:24:32;;;;;;;1.70;0.93;;;;;;;21.87;67.37;95858.69;5134868;27;20466;-51
2022/10/12 11:27:05;;;;;;;0.63;0.60;;;;;;;21.93;66.19;95860.09;5135048;27;20434;-51
2022/10/12 11:29:36;;;;;;;0.40;0.30;;;;;;;21.90;66.67;95846.47;5135288;27;20426;-51
2022/10/12 11:32:11;;;;;;;6.70;0.50;;;;;;;22.07;65.83;95851.72;5134251;27;20437;-51
2022/10/12 11:34:48;;;;;;;1.13;1.03;;;;;;;21.92;65.24;95855.00;5134367;27;20422;-51
2022/10/12 11:37:20;;;;;;;1.20;0.67;;;;;;;22.07;65.56;95849.81;5134418;27;21070;-51
2022/10/12 11:39:52;;;;;;;1.30;0.80;;;;;;;21.55;66.21;95850.44;5134526;27;20422;-50
2022/10/12 11:42:31;;;;;;;0.50;0.30;;;;;;;21.72;65.01;95842.25;5134446;27;20509;-50
2022/10/12 11:45:01;;;;;;;1.77;1.40;;;;;;;21.79;64.70;95845.22;5134347;27;20833;-51
2022/10/12 11:47:36;;;;;;;0.70;0.53;;;;;;;22.38;64.19;95841.31;5134248;27;20434;-51